Anna Desgagnes — VCWS — position and weather

sailwx.info

Track history (hours):
 
Tides and Currents Weather Stations Pressure Air Temp Water Temp Dewpoint Dewpoint Depression Visibility Wind Speed Wind Dir Waves Ship Positions

Anna Desgagnes

Last reported at 2017-Jan-21 05:00 UTC. Time now 2017-Jan-21 06:26 UTC.
Position N 45°30' W 073°30'.

Length 173 m; draft 7 m.

Type: Ship. MMSI: 316297000.

Wind from 160 at 2 knots

Air temperature 1.5 ° C
Dewpoint 0.3 ° C

Date/timePositionNaut miles runAvg speedWind from/ knotsBaromVisibWave heightAir tempDewpointWater temp
2017-Jan-21 05:00N 45°30' W 073°30'0 0.0 160 / 2 1.5 0.3
2017-Jan-21 04:00N 45°30' W 073°30'0 0.0 100 / 1 1.5-0.0
2017-Jan-21 03:00N 45°30' W 073°30'0 0.0 140 / 1 1.7-0.1
2017-Jan-21 02:00N 45°30' W 073°30'0 0.0 140 / 2 1.6-0.2
2017-Jan-21 01:00N 45°30' W 073°30'0 0.0 100 / 2 1.9-0.3
2017-Jan-21 00:00N 45°30' W 073°30'0 0.0 110 / 2 2.1-0.6
2017-Jan-20 23:00N 45°30' W 073°30'0 0.0 100 / 1 2.1-0.7
2017-Jan-20 22:00N 45°30' W 073°30'0 0.0 100 / 2 2.3-0.9
2017-Jan-20 21:00N 45°30' W 073°30'0 0.0 130 / 3 2.3-1.1
2017-Jan-20 20:00N 45°30' W 073°30'0 0.0 120 / 4 2.4-1.2
2017-Jan-20 19:00N 45°30' W 073°30'0 0.0 120 / 4 2.5-1.2
2017-Jan-20 18:00N 45°30' W 073°30'0 0.0 120 / 2 2.7-1.2
2017-Jan-20 17:00N 45°30' W 073°30'0 0.0 120 / 2 2.7-0.6
2017-Jan-20 16:00N 45°30' W 073°30'0 0.0 130 / 2 2.6-0.5
2017-Jan-20 15:00N 45°30' W 073°30'0 0.0 110 / 1 2.0 0.5
2017-Jan-20 14:00N 45°30' W 073°30'0 0.0 100 / 1 1.7 0.4
2017-Jan-20 13:00N 45°30' W 073°30'0 0.0 120 / 1 1.3 1.1
2017-Jan-20 12:00N 45°30' W 073°30'0 0.0 160 / 3 1.8 1.0
2017-Jan-20 11:00N 45°30' W 073°30'0 0.0 170 / 2 1.8 1.4
2017-Jan-20 10:00N 45°30' W 073°30'0 0.0 190 / 4 1.5 1.3
2017-Jan-20 09:00N 45°30' W 073°30'0 0.0 180 / 4 1.5 1.4
2017-Jan-20 08:00N 45°30' W 073°30'0 0.0 150 / 1 1.4 1.3
2017-Jan-20 07:00N 45°30' W 073°30'0 0.0 100 / 1 1.3 1.3
2017-Jan-20 06:00N 45°30' W 073°30'0 0.0 1.6 1.6
2017-Jan-20 05:00N 45°30' W 073°30'0 0.0 110 / 1 1.9 1.9
2017-Jan-20 04:00N 45°30' W 073°30'0 0.0 200 / 3 2.2 1.1
2017-Jan-20 03:00N 45°30' W 073°30'0 0.0 250 / 2 2.5 1.0
2017-Jan-20 02:00N 45°30' W 073°30'0 0.0 250 / 3 2.6 1.0
2017-Jan-20 01:00N 45°30' W 073°30'0 0.0 240 / 3 2.4 1.1
2017-Jan-20 00:00N 45°30' W 073°30'0 0.0 220 / 4 2.3 1.0
2017-Jan-19 23:00N 45°30' W 073°30'0 0.0 210 / 5 2.3 0.9
2017-Jan-19 22:00N 45°30' W 073°30'0 0.0 300 / 4 2.6 0.8
2017-Jan-19 21:00N 45°30' W 073°30'0 0.0 210 / 4 2.2 1.0
2017-Jan-19 20:00N 45°30' W 073°30'0 0.0 230 / 4 2.2 1.1
2017-Jan-19 19:00N 45°30' W 073°30'0 0.0 240 / 4 2.2 1.2
2017-Jan-19 18:00N 45°30' W 073°30'0 0.0 260 / 3 2.1 1.4
2017-Jan-19 17:00N 45°30' W 073°30'0 0.0 230 / 7 1.9 1.3
2017-Jan-19 16:00N 45°30' W 073°30'0 0.0 240 / 7 1.7 1.4
2017-Jan-19 15:00N 45°30' W 073°30'0 0.0 240 / 7 1.6 1.6
2017-Jan-19 14:00N 45°30' W 073°30'0 0.0 220 / 6 1.3 1.2
2017-Jan-19 13:00N 45°30' W 073°30'0 0.0 230 / 4 1.1 1.1
2017-Jan-19 12:00N 45°30' W 073°30'0 0.0 220 / 5 0.9 0.9
2017-Jan-19 11:00N 45°30' W 073°30'0 0.0 210 / 5 0.8 0.8
2017-Jan-19 10:00N 45°30' W 073°30'0 0.0 230 / 6 0.7 0.7
2017-Jan-19 09:00N 45°30' W 073°30'0 0.0 210 / 5 0.5 0.5
2017-Jan-19 08:00N 45°30' W 073°30'0 0.0 190 / 2 -0.1-0.1
2017-Jan-19 07:00N 45°30' W 073°30'0 0.0 190 / 2 -0.9-0.9
2017-Jan-19 06:00N 45°30' W 073°30'0 0.0 200 / 3 -1.0-1.1
2017-Jan-19 05:00N 45°30' W 073°30'0 0.0 210 / 4 -1.4-1.4
2017-Jan-19 04:00N 45°30' W 073°30'0 0.0 200 / 4 -1.5-1.5
2017-Jan-19 03:00N 45°30' W 073°30'0 0.0 210 / 5 -1.7-1.7
2017-Jan-19 02:00N 45°30' W 073°30'0 0.0 210 / 4 -1.5-1.6
2017-Jan-19 01:00N 45°30' W 073°30'0 0.0 210 / 4 -1.5-1.5
2017-Jan-19 00:00N 45°30' W 073°30'0 0.0 200 / 5 -1.0-1.0
2017-Jan-18 23:00N 45°30' W 073°30'0 0.0 -1.8-1.8
2017-Jan-18 22:00N 45°30' W 073°30'0 0.0 360 / 4 -2.6-2.6
2017-Jan-18 21:00N 45°30' W 073°30'0 0.0 360 / 5 -2.7-2.8
2017-Jan-18 20:00N 45°30' W 073°30'0 0.0 360 / 7 -2.7-2.8
2017-Jan-18 19:00N 45°30' W 073°30'0 0.0 360 / 6 -3.3-3.4
2017-Jan-18 18:00N 45°30' W 073°30'0 0.0 360 / 7 -3.8-3.8
2017-Jan-18 17:00N 45°30' W 073°30'0 0.0 350 / 10 -4.2-4.2
2017-Jan-18 16:00N 45°30' W 073°30'0 0.0 350 / 10 -4.4-4.5
2017-Jan-18 15:00N 45°30' W 073°30'0 0.0 350 / 11 -4.4-4.5
2017-Jan-18 14:00N 45°30' W 073°30'0 0.0 350 / 13 -3.9-3.9
2017-Jan-18 13:00N 45°30' W 073°30'0 0.0 350 / 12 -3.8-3.9
2017-Jan-18 12:00N 45°30' W 073°30'0 0.0 350 / 10 -3.7-3.7
2017-Jan-18 11:00N 45°30' W 073°30'0 0.0 350 / 11 -3.8-3.8
2017-Jan-18 10:00N 45°30' W 073°30'0 0.0 350 / 10 -4.3-4.3
2017-Jan-18 09:00N 45°30' W 073°30'0 0.0 360 / 11 -4.4-4.5
2017-Jan-18 08:00N 45°30' W 073°30'0 0.0 350 / 11 -4.9-5.0
2017-Jan-18 07:00N 45°30' W 073°30'0 0.0 350 / 12 -5.3-5.4
2017-Jan-18 06:00N 45°30' W 073°30'0 0.0 360 / 10 -5.6-5.8
2017-Jan-18 05:00N 45°30' W 073°30'0 0.0 360 / 9 -5.4-6.1
2017-Jan-18 04:00N 45°30' W 073°30'0 0.0 360 / 10 -5.2-8.0
2017-Jan-18 03:00N 45°30' W 073°30'0 0.0 360 / 9 -4.2-8.7
2017-Jan-18 02:00N 45°30' W 073°30'0 0.0 360 / 11 -3.7-8.7
2017-Jan-18 01:00N 45°30' W 073°30'0 0.0 360 / 12 -3.1-7.6
2017-Jan-18 00:00N 45°30' W 073°30'0 0.0 360 / 8 -2.4-7.3
2017-Jan-17 23:00N 45°30' W 073°30'0 0.0 020 / 7 -2.3-7.4
2017-Jan-17 22:00N 45°30' W 073°30'0 0.0 020 / 7 -2.1-7.3
2017-Jan-17 21:00N 45°30' W 073°30'0 0.0 020 / 7 -1.6-6.9
2017-Jan-17 20:00N 45°30' W 073°30'0 0.0 020 / 9 -0.8-6.6
2017-Jan-17 19:00N 45°30' W 073°30'0 0.0 020 / 9 -0.7-6.7
2017-Jan-17 18:00N 45°30' W 073°30'0 0.0 020 / 7 -1.2-6.9
2017-Jan-17 17:00N 45°30' W 073°30'0 0.0 020 / 6 -1.3-7.0
2017-Jan-17 16:00N 45°30' W 073°30'0 0.0 030 / 8 -1.3-7.1
2017-Jan-17 15:00N 45°30' W 073°30'0 0.0 030 / 8 -1.1-6.2
2017-Jan-17 14:00N 45°30' W 073°30'0 0.0 020 / 6 -0.6-3.8
2017-Jan-17 13:00N 45°30' W 073°30'0 0.0 020 / 3 -0.9-3.2
2017-Jan-17 12:00N 45°30' W 073°30'0 0.0 030 / 3 -0.8-3.0
2017-Jan-17 11:00N 45°30' W 073°30'0 0.0 210 / 3 -1.7-4.1
2017-Jan-17 10:00N 45°30' W 073°30'0 0.0 200 / 4 -1.7-3.9
2017-Jan-17 09:00N 45°30' W 073°30'0 0.0 210 / 7 -1.5-3.9
2017-Jan-17 08:00N 45°30' W 073°30'0 0.0 180 / 5 -0.0-4.1
2017-Jan-17 07:00N 45°30' W 073°30'0 0.0 290 / 7 0.7-5.2
2017-Jan-17 06:00N 45°30' W 073°30'0 0.0 230 / 7 -0.1-3.7
2017-Jan-17 05:00N 45°30' W 073°30'0 0.0 230 / 8 -0.0-3.5
2017-Jan-17 04:00N 45°30' W 073°30'0 0.0 220 / 7 0.2-3.1
2017-Jan-17 03:00N 45°30' W 073°30'0 0.0 210 / 9 0.4-3.2
2017-Jan-17 02:00N 45°30' W 073°30'0 0.0 210 / 10 0.8-3.2
2017-Jan-17 01:00N 45°30' W 073°30'0 0.0 210 / 10 0.9-3.3
2017-Jan-17 00:00N 45°30' W 073°30'0 0.0 210 / 8 1.4-3.4
2017-Jan-16 23:00N 45°30' W 073°30'0 0.0 200 / 7 2.1-3.7
2017-Jan-16 22:00N 45°30' W 073°30'0 0.0 210 / 6 2.5-4.0
2017-Jan-16 21:00N 45°30' W 073°30'0 0.0 210 / 12 2.7-3.8
2017-Jan-16 20:00N 45°30' W 073°30'0 0.0 210 / 14 2.5-3.8
2017-Jan-16 19:00N 45°30' W 073°30'0 0.0 210 / 12 2.1-4.2
2017-Jan-16 18:00N 45°30' W 073°30'0 0.0 210 / 12 1.4-4.7
2017-Jan-16 17:00N 45°30' W 073°30'0 0.0 200 / 13 0.8-5.3
2017-Jan-16 16:00N 45°30' W 073°30'0 0.0 210 / 15 0.1-6.4
2017-Jan-16 15:00N 45°30' W 073°30'0 0.0 190 / 11 -1.1-6.2
2017-Jan-16 14:00N 45°30' W 073°30'0 0.0 180 / 8 -3.4-7.6
2017-Jan-16 13:00N 45°30' W 073°30'0 0.0 190 / 6 -5.1-8.9
2017-Jan-16 12:00N 45°30' W 073°30'0 0.0 180 / 5 -6.2-9.6
2017-Jan-16 11:00N 45°30' W 073°30'0 0.0 170 / 5 -6.4-10.4
2017-Jan-16 10:00N 45°30' W 073°30'0 0.0 180 / 5 -7.3-11.4
2017-Jan-16 09:00N 45°30' W 073°30'0 0.0 170 / 3 -7.9-11.5
2017-Jan-16 08:00N 45°30' W 073°30'0 0.0 180 / 6 -8.2-12.0
2017-Jan-16 07:00N 45°30' W 073°30'0 0.0 190 / 6 -8.3-13.1
2017-Jan-16 06:00N 45°30' W 073°30'0 0.0 180 / 6 -8.2-13.2
2017-Jan-16 05:00N 45°30' W 073°30'0 0.0 170 / 6 -7.7-12.7
2017-Jan-16 04:00N 45°30' W 073°30'0 0.0 190 / 4 -8.2-13.6
2017-Jan-16 03:00N 45°30' W 073°30'0 0.0 200 / 4 -8.5-13.6
2017-Jan-16 02:00N 45°30' W 073°30'0 0.0 200 / 4 -7.8-15.5
2017-Jan-16 01:00N 45°30' W 073°30'0 0.0 240 / 1 -7.8-15.9
2017-Jan-16 00:00N 45°30' W 073°30'0 0.0 -7.9-16.0
2017-Jan-15 23:00N 45°30' W 073°30'0 0.0 240 / 5 -8.3-16.5
2017-Jan-15 22:00N 45°30' W 073°30'0 0.0 220 / 5 -8.1-16.1
2017-Jan-15 21:00N 45°30' W 073°30'0 0.0 210 / 5 -7.6-16.2
2017-Jan-15 20:00N 45°30' W 073°30'0 0.0 220 / 4 -7.1-17.0
2017-Jan-15 19:00N 45°30' W 073°30'0 0.0 100 / 2 -6.2-16.3
2017-Jan-15 18:00N 45°30' W 073°30'0 0.0 350 / 5 -8.1-18.0
2017-Jan-15 17:00N 45°30' W 073°30'0 0.0 340 / 7 -8.7-18.4
2017-Jan-15 16:00N 45°30' W 073°30'0 0.0 340 / 10 -9.0-18.3
2017-Jan-15 15:00N 45°30' W 073°30'0 0.0 350 / 10 -9.3-17.5
2017-Jan-15 14:00N 45°30' W 073°30'0 0.0 350 / 11 -9.1-16.7
2017-Jan-15 13:00N 45°30' W 073°30'0 0.0 340 / 10 -9.5-13.8
2017-Jan-15 12:00N 45°30' W 073°30'0 0.0 300 / 10 -7.9-11.3
2017-Jan-15 11:00N 45°30' W 073°30'0 0.0 290 / 9 -6.8-10.5
2017-Jan-15 10:00N 45°30' W 073°30'0 0.0 250 / 8 -6.7-10.2
2017-Jan-15 09:00N 45°30' W 073°30'0 0.0 240 / 10 -6.8-10.1
2017-Jan-15 08:00N 45°30' W 073°30'0 0.0 240 / 10 -6.0-9.7
2017-Jan-15 07:00N 45°30' W 073°30'0 0.0 240 / 11 -6.2-9.9
2017-Jan-15 06:00N 45°30' W 073°30'0 0.0 230 / 9 -6.7-10.4
2017-Jan-15 05:00N 45°30' W 073°30'0 0.0 230 / 8 -6.8-10.3
2017-Jan-15 04:00N 45°30' W 073°30'0 0.0 200 / 5 -6.9-10.4
2017-Jan-15 03:00N 45°30' W 073°30'0 0.0 190 / 6 -7.1-11.9
2017-Jan-15 02:00N 45°30' W 073°30'0 0.0 180 / 8 -7.1-11.8
2017-Jan-15 01:00N 45°30' W 073°30'0 0.0 180 / 6 -8.1-12.2
2017-Jan-15 00:00N 45°30' W 073°30'0 0.0 180 / 5 -8.7-14.3
2017-Jan-14 23:00N 45°30' W 073°30'0 0.0 180 / 5 -9.2-14.8
2017-Jan-14 22:00N 45°30' W 073°30'0 0.0 190 / 3 -9.6-16.4
2017-Jan-14 21:00N 45°30' W 073°30'0 0.0 160 / 5 -9.5-16.6
2017-Jan-14 20:00N 45°30' W 073°30'0 0.0 190 / 5 -10.6-18.4
2017-Jan-14 19:00N 45°30' W 073°30'0 0.0 200 / 4 -11.3-18.7
2017-Jan-14 18:00N 45°30' W 073°30'0 0.0 180 / 5 -12.0-19.1
2017-Jan-14 17:00N 45°30' W 073°30'0 0.0 180 / 3 -12.7-18.9
2017-Jan-14 16:00N 45°30' W 073°30'0 0.0 190 / 7 -14.1-19.8
2017-Jan-14 15:00N 45°30' W 073°30'0 0.0 190 / 5 -14.7-20.6
2017-Jan-14 14:00N 45°30' W 073°30'0 0.0 180 / 1 -14.9-20.4
2017-Jan-14 13:00N 45°30' W 073°30'0 0.0 100 / 2 -15.8-21.8
2017-Jan-14 12:00N 45°30' W 073°30'0 0.0 090 / 2 -16.0-22.0
2017-Jan-14 11:00N 45°30' W 073°30'0 0.0 100 / 1 -15.7-21.1
2017-Jan-14 10:00N 45°30' W 073°30'0 0.0 350 / 5 -15.5-22.9
2017-Jan-14 09:00N 45°30' W 073°30'0 0.0 340 / 5 -15.4-22.7
2017-Jan-14 08:00N 45°30' W 073°30'0 0.0 340 / 6 -15.1-22.3
2017-Jan-14 07:00N 45°30' W 073°30'0 0.0 320 / 6 -14.6-22.0
2017-Jan-14 06:00N 45°30' W 073°30'0 0.0 320 / 8 -14.2-22.1
2017-Jan-14 05:00N 45°30' W 073°30'0 0.0 300 / 8 -13.6-21.4
2017-Jan-14 04:00N 45°30' W 073°30'0 0.0 290 / 7 -13.1-20.8
2017-Jan-14 03:00N 45°30' W 073°30'0 0.0 320 / 8 -12.2-21.0
2017-Jan-14 02:00N 45°30' W 073°30'0 0.0 300 / 10 -11.6-20.9
2017-Jan-14 01:00N 45°30' W 073°30'0 0.0 320 / 8 -10.9-20.8
2017-Jan-14 00:00N 45°30' W 073°30'0 0.0 320 / 11 -10.1-20.6
2017-Jan-13 23:00N 45°30' W 073°30'0 0.0 290 / 9 -9.4-21.3
2017-Jan-13 22:00N 45°30' W 073°30'0 0.0 290 / 12 -8.9-21.9
2017-Jan-13 21:00N 45°30' W 073°30'0 0.0 300 / 14 -8.0-21.3
2017-Jan-13 20:00N 45°30' W 073°30'0 0.0 260 / 10 -7.4-20.4
2017-Jan-13 19:00N 45°30' W 073°30'0 0.0 300 / 13 -6.4-17.2
2017-Jan-13 18:00N 45°30' W 073°30'0 0.0 300 / 16 -5.9-17.3
2017-Jan-13 17:00N 45°30' W 073°30'0 0.0 300 / 13 -5.5-13.9
2017-Jan-13 16:00N 45°30' W 073°30'0 0.0 300 / 12 -4.8-14.6
2017-Jan-13 15:00N 45°30' W 073°30'0 0.0 300 / 12 -4.4-13.2
2017-Jan-13 14:00N 45°30' W 073°30'0 0.0 280 / 9 -4.2-13.1
2017-Jan-13 13:00N 45°30' W 073°30'0 0.0 280 / 8 -3.6-10.1
2017-Jan-13 12:00N 45°30' W 073°30'0 0.0 250 / 9 -3.1-7.4
2017-Jan-13 11:00N 45°30' W 073°30'0 0.0 280 / 11 -3.1-5.8
2017-Jan-13 10:00N 45°30' W 073°30'0 0.0 240 / 10 -3.0-8.9
2017-Jan-13 09:00N 45°30' W 073°30'0 0.0 250 / 8 -2.4-9.1
2017-Jan-13 08:00N 45°30' W 073°30'0 0.0 280 / 8 -1.3-8.8
2017-Jan-13 07:00N 45°30' W 073°30'0 0.0 240 / 9 -0.2-5.1
2017-Jan-13 06:00N 45°30' W 073°30'0 0.0 240 / 8 -0.2-3.0
2017-Jan-13 05:00N 45°30' W 073°30'0 0.0 230 / 9 0.9 0.2
2017-Jan-13 03:00N 45°30' W 073°30'0 0.0 230 / 9 2.0 1.9
2017-Jan-13 02:00N 45°30' W 073°30'0 0.0 230 / 7 2.8 2.8
2017-Jan-13 01:00N 45°30' W 073°30'0 0.0 230 / 7 3.5 3.4
2017-Jan-13 00:00N 45°30' W 073°30'0 0.0 230 / 5 3.9 3.9
2017-Jan-12 23:00N 45°30' W 073°30'0 0.0 200 / 6 3.9 4.0
2017-Jan-12 22:00N 45°30' W 073°30'0 0.0 190 / 6 4.5 4.6
2017-Jan-12 21:00N 45°30' W 073°30'0 0.0 200 / 5 5.2 5.3
2017-Jan-12 20:00N 45°30' W 073°30'0 0.0 200 / 4 6.2 6.3
2017-Jan-12 19:00N 45°30' W 073°30'0 0.0 200 / 4 5.9 6.0
2017-Jan-12 18:00N 45°30' W 073°30'0 0.0 170 / 2 6.0 6.1
2017-Jan-12 17:00N 45°30' W 073°30'0 0.0 140 / 4 6.0 6.1
2017-Jan-12 16:00N 45°30' W 073°30'0 0.0 190 / 5 5.3 5.3
2017-Jan-12 15:00N 45°30' W 073°30'0 0.0 190 / 4 5.3 5.3
2017-Jan-12 14:00N 45°30' W 073°30'0 0.0 170 / 6 5.3 5.3
2017-Jan-12 13:00N 45°30' W 073°30'0 0.0 160 / 9 5.4 5.4
2017-Jan-12 12:00N 45°30' W 073°30'0 0.0 160 / 8 5.7 5.6
2017-Jan-12 11:00N 45°30' W 073°30'0 0.0 160 / 7 5.6 5.5
2017-Jan-12 10:00N 45°30' W 073°30'0 0.0 150 / 7 5.6 3.8
2017-Jan-12 09:00N 45°30' W 073°30'0 0.0 160 / 8 6.4 1.6
2017-Jan-12 08:00N 45°30' W 073°30'0 0.0 150 / 7 5.9 0.6
2017-Jan-12 07:00N 45°30' W 073°30'0 0.0 170 / 9 5.9 0.3
2017-Jan-12 06:00N 45°30' W 073°30'0 0.0 160 / 8 6.0-0.1
2017-Jan-12 05:00N 45°30' W 073°30'0 0.0 160 / 5 6.4-0.8
2017-Jan-12 04:00N 45°30' W 073°30'0 0.0 160 / 7 6.2-1.7
2017-Jan-12 03:00N 45°30' W 073°30'0 0.0 150 / 7 6.0-1.1
2017-Jan-12 02:00N 45°30' W 073°30'0 0.0 180 / 8 6.2-1.6
2017-Jan-12 01:00N 45°30' W 073°30'0 0.0 140 / 9 5.6-0.6
2017-Jan-12 00:00N 45°30' W 073°30'0 0.0 120 / 3 3.8-1.0
2017-Jan-11 23:00N 45°30' W 073°30'0 0.0 200 / 4 4.5-2.3
2017-Jan-11 22:00N 45°30' W 073°30'0 0.0 210 / 5 4.9-2.1
2017-Jan-11 21:00N 45°30' W 073°30'0 0.0 200 / 7 5.4-2.0
2017-Jan-11 20:00N 45°30' W 073°30'0 0.0 210 / 7 5.7-1.9
2017-Jan-11 19:00N 45°30' W 073°30'0 0.0 210 / 13 5.1-1.8
2017-Jan-11 18:00N 45°30' W 073°30'0 0.0 210 / 15 4.9-1.8
2017-Jan-11 17:00N 45°30' W 073°30'0 0.0 200 / 16 4.2-1.5
2017-Jan-11 16:00N 45°30' W 073°30'0 0.0 210 / 17 4.5-1.8
2017-Jan-11 15:00N 45°30' W 073°30'0 0.0 210 / 16 4.8-1.9
2017-Jan-11 14:00N 45°30' W 073°30'0 0.0 210 / 13 4.9-1.3
2017-Jan-11 13:00N 45°30' W 073°30'0 0.0 200 / 20 4.7-1.0
2017-Jan-11 12:00N 45°30' W 073°30'0 0.0 200 / 19 4.2 1.8
2017-Jan-11 11:00N 45°30' W 073°30'0 0.0 170 / 15 3.5 1.6
2017-Jan-11 10:00N 45°30' W 073°30'0 0.0 160 / 14 3.0 2.0
2017-Jan-11 09:00N 45°30' W 073°30'0 0.0 140 / 17 2.6 2.2
2017-Jan-11 08:00N 45°30' W 073°30'0 0.0 160 / 18 3.2 1.3
2017-Jan-11 07:00N 45°30' W 073°30'0 0.0 150 / 15 3.3-0.1
2017-Jan-11 06:00N 45°30' W 073°30'0 0.0 150 / 15 2.6-1.0
2017-Jan-11 05:00N 45°30' W 073°30'   160 / 16 2.6-1.8
Track history (hours):
 
Tides and Currents Weather Stations Pressure Air Temp Water Temp Dewpoint Dewpoint Depression Visibility Wind Speed Wind Dir Waves Ship Positions

Anna Desgagnes

Last reported at 2017-Jan-21 05:00 UTC. Time now 2017-Jan-21 06:26 UTC.
Position N 45°30' W 073°30'.

Length 173 m; draft 7 m.

Type: Ship. MMSI: 316297000.

Wind from 160 at 2 knots

Air temperature 1.5 ° C
Dewpoint 0.3 ° C

Date/timePositionNaut miles runAvg speedWind from/ knotsBaromVisibWave heightAir tempDewpointWater temp
2017-Jan-21 05:00N 45°30' W 073°30'0 0.0 160 / 2 1.5 0.3
2017-Jan-21 04:00N 45°30' W 073°30'0 0.0 100 / 1 1.5-0.0
2017-Jan-21 03:00N 45°30' W 073°30'0 0.0 140 / 1 1.7-0.1
2017-Jan-21 02:00N 45°30' W 073°30'0 0.0 140 / 2 1.6-0.2
2017-Jan-21 01:00N 45°30' W 073°30'0 0.0 100 / 2 1.9-0.3
2017-Jan-21 00:00N 45°30' W 073°30'0 0.0 110 / 2 2.1-0.6
2017-Jan-20 23:00N 45°30' W 073°30'0 0.0 100 / 1 2.1-0.7
2017-Jan-20 22:00N 45°30' W 073°30'0 0.0 100 / 2 2.3-0.9
2017-Jan-20 21:00N 45°30' W 073°30'0 0.0 130 / 3 2.3-1.1
2017-Jan-20 20:00N 45°30' W 073°30'0 0.0 120 / 4 2.4-1.2
2017-Jan-20 19:00N 45°30' W 073°30'0 0.0 120 / 4 2.5-1.2
2017-Jan-20 18:00N 45°30' W 073°30'0 0.0 120 / 2 2.7-1.2
2017-Jan-20 17:00N 45°30' W 073°30'0 0.0 120 / 2 2.7-0.6
2017-Jan-20 16:00N 45°30' W 073°30'0 0.0 130 / 2 2.6-0.5
2017-Jan-20 15:00N 45°30' W 073°30'0 0.0 110 / 1 2.0 0.5
2017-Jan-20 14:00N 45°30' W 073°30'0 0.0 100 / 1 1.7 0.4
2017-Jan-20 13:00N 45°30' W 073°30'0 0.0 120 / 1 1.3 1.1
2017-Jan-20 12:00N 45°30' W 073°30'0 0.0 160 / 3 1.8 1.0
2017-Jan-20 11:00N 45°30' W 073°30'0 0.0 170 / 2 1.8 1.4
2017-Jan-20 10:00N 45°30' W 073°30'0 0.0 190 / 4 1.5 1.3
2017-Jan-20 09:00N 45°30' W 073°30'0 0.0 180 / 4 1.5 1.4
2017-Jan-20 08:00N 45°30' W 073°30'0 0.0 150 / 1 1.4 1.3
2017-Jan-20 07:00N 45°30' W 073°30'0 0.0 100 / 1 1.3 1.3
2017-Jan-20 06:00N 45°30' W 073°30'0 0.0 1.6 1.6
2017-Jan-20 05:00N 45°30' W 073°30'0 0.0 110 / 1 1.9 1.9
2017-Jan-20 04:00N 45°30' W 073°30'0 0.0 200 / 3 2.2 1.1
2017-Jan-20 03:00N 45°30' W 073°30'0 0.0 250 / 2 2.5 1.0
2017-Jan-20 02:00N 45°30' W 073°30'0 0.0 250 / 3 2.6 1.0
2017-Jan-20 01:00N 45°30' W 073°30'0 0.0 240 / 3 2.4 1.1
2017-Jan-20 00:00N 45°30' W 073°30'0 0.0 220 / 4 2.3 1.0
2017-Jan-19 23:00N 45°30' W 073°30'0 0.0 210 / 5 2.3 0.9
2017-Jan-19 22:00N 45°30' W 073°30'0 0.0 300 / 4 2.6 0.8
2017-Jan-19 21:00N 45°30' W 073°30'0 0.0 210 / 4 2.2 1.0
2017-Jan-19 20:00N 45°30' W 073°30'0 0.0 230 / 4 2.2 1.1
2017-Jan-19 19:00N 45°30' W 073°30'0 0.0 240 / 4 2.2 1.2
2017-Jan-19 18:00N 45°30' W 073°30'0 0.0 260 / 3 2.1 1.4
2017-Jan-19 17:00N 45°30' W 073°30'0 0.0 230 / 7 1.9 1.3
2017-Jan-19 16:00N 45°30' W 073°30'0 0.0 240 / 7 1.7 1.4
2017-Jan-19 15:00N 45°30' W 073°30'0 0.0 240 / 7 1.6 1.6
2017-Jan-19 14:00N 45°30' W 073°30'0 0.0 220 / 6 1.3 1.2
2017-Jan-19 13:00N 45°30' W 073°30'0 0.0 230 / 4 1.1 1.1
2017-Jan-19 12:00N 45°30' W 073°30'0 0.0 220 / 5 0.9 0.9
2017-Jan-19 11:00N 45°30' W 073°30'0 0.0 210 / 5 0.8 0.8
2017-Jan-19 10:00N 45°30' W 073°30'0 0.0 230 / 6 0.7 0.7
2017-Jan-19 09:00N 45°30' W 073°30'0 0.0 210 / 5 0.5 0.5
2017-Jan-19 08:00N 45°30' W 073°30'0 0.0 190 / 2 -0.1-0.1
2017-Jan-19 07:00N 45°30' W 073°30'0 0.0 190 / 2 -0.9-0.9
2017-Jan-19 06:00N 45°30' W 073°30'0 0.0 200 / 3 -1.0-1.1
2017-Jan-19 05:00N 45°30' W 073°30'0 0.0 210 / 4 -1.4-1.4
2017-Jan-19 04:00N 45°30' W 073°30'0 0.0 200 / 4 -1.5-1.5
2017-Jan-19 03:00N 45°30' W 073°30'0 0.0 210 / 5 -1.7-1.7
2017-Jan-19 02:00N 45°30' W 073°30'0 0.0 210 / 4 -1.5-1.6
2017-Jan-19 01:00N 45°30' W 073°30'0 0.0 210 / 4 -1.5-1.5
2017-Jan-19 00:00N 45°30' W 073°30'0 0.0 200 / 5 -1.0-1.0
2017-Jan-18 23:00N 45°30' W 073°30'0 0.0 -1.8-1.8
2017-Jan-18 22:00N 45°30' W 073°30'0 0.0 360 / 4 -2.6-2.6
2017-Jan-18 21:00N 45°30' W 073°30'0 0.0 360 / 5 -2.7-2.8
2017-Jan-18 20:00N 45°30' W 073°30'0 0.0 360 / 7 -2.7-2.8
2017-Jan-18 19:00N 45°30' W 073°30'0 0.0 360 / 6 -3.3-3.4
2017-Jan-18 18:00N 45°30' W 073°30'0 0.0 360 / 7 -3.8-3.8
2017-Jan-18 17:00N 45°30' W 073°30'0 0.0 350 / 10 -4.2-4.2
2017-Jan-18 16:00N 45°30' W 073°30'0 0.0 350 / 10 -4.4-4.5
2017-Jan-18 15:00N 45°30' W 073°30'0 0.0 350 / 11 -4.4-4.5
2017-Jan-18 14:00N 45°30' W 073°30'0 0.0 350 / 13 -3.9-3.9
2017-Jan-18 13:00N 45°30' W 073°30'0 0.0 350 / 12 -3.8-3.9
2017-Jan-18 12:00N 45°30' W 073°30'0 0.0 350 / 10 -3.7-3.7
2017-Jan-18 11:00N 45°30' W 073°30'0 0.0 350 / 11 -3.8-3.8
2017-Jan-18 10:00N 45°30' W 073°30'0 0.0 350 / 10 -4.3-4.3
2017-Jan-18 09:00N 45°30' W 073°30'0 0.0 360 / 11 -4.4-4.5
2017-Jan-18 08:00N 45°30' W 073°30'0 0.0 350 / 11 -4.9-5.0
2017-Jan-18 07:00N 45°30' W 073°30'0 0.0 350 / 12 -5.3-5.4
2017-Jan-18 06:00N 45°30' W 073°30'0 0.0 360 / 10 -5.6-5.8
2017-Jan-18 05:00N 45°30' W 073°30'0 0.0 360 / 9 -5.4-6.1
2017-Jan-18 04:00N 45°30' W 073°30'0 0.0 360 / 10 -5.2-8.0
2017-Jan-18 03:00N 45°30' W 073°30'0 0.0 360 / 9 -4.2-8.7
2017-Jan-18 02:00N 45°30' W 073°30'0 0.0 360 / 11 -3.7-8.7
2017-Jan-18 01:00N 45°30' W 073°30'0 0.0 360 / 12 -3.1-7.6
2017-Jan-18 00:00N 45°30' W 073°30'0 0.0 360 / 8 -2.4-7.3
2017-Jan-17 23:00N 45°30' W 073°30'0 0.0 020 / 7 -2.3-7.4
2017-Jan-17 22:00N 45°30' W 073°30'0 0.0 020 / 7 -2.1-7.3
2017-Jan-17 21:00N 45°30' W 073°30'0 0.0 020 / 7 -1.6-6.9
2017-Jan-17 20:00N 45°30' W 073°30'0 0.0 020 / 9 -0.8-6.6
2017-Jan-17 19:00N 45°30' W 073°30'0 0.0 020 / 9 -0.7-6.7
2017-Jan-17 18:00N 45°30' W 073°30'0 0.0 020 / 7 -1.2-6.9
2017-Jan-17 17:00N 45°30' W 073°30'0 0.0 020 / 6 -1.3-7.0
2017-Jan-17 16:00N 45°30' W 073°30'0 0.0 030 / 8 -1.3-7.1
2017-Jan-17 15:00N 45°30' W 073°30'0 0.0 030 / 8 -1.1-6.2
2017-Jan-17 14:00N 45°30' W 073°30'0 0.0 020 / 6 -0.6-3.8
2017-Jan-17 13:00N 45°30' W 073°30'0 0.0 020 / 3 -0.9-3.2
2017-Jan-17 12:00N 45°30' W 073°30'0 0.0 030 / 3 -0.8-3.0
2017-Jan-17 11:00N 45°30' W 073°30'0 0.0 210 / 3 -1.7-4.1
2017-Jan-17 10:00N 45°30' W 073°30'0 0.0 200 / 4 -1.7-3.9
2017-Jan-17 09:00N 45°30' W 073°30'0 0.0 210 / 7 -1.5-3.9
2017-Jan-17 08:00N 45°30' W 073°30'0 0.0 180 / 5 -0.0-4.1
2017-Jan-17 07:00N 45°30' W 073°30'0 0.0 290 / 7 0.7-5.2
2017-Jan-17 06:00N 45°30' W 073°30'0 0.0 230 / 7 -0.1-3.7
2017-Jan-17 05:00N 45°30' W 073°30'0 0.0 230 / 8 -0.0-3.5
2017-Jan-17 04:00N 45°30' W 073°30'0 0.0 220 / 7 0.2-3.1
2017-Jan-17 03:00N 45°30' W 073°30'0 0.0 210 / 9 0.4-3.2
2017-Jan-17 02:00N 45°30' W 073°30'0 0.0 210 / 10 0.8-3.2
2017-Jan-17 01:00N 45°30' W 073°30'0 0.0 210 / 10 0.9-3.3
2017-Jan-17 00:00N 45°30' W 073°30'0 0.0 210 / 8 1.4-3.4
2017-Jan-16 23:00N 45°30' W 073°30'0 0.0 200 / 7 2.1-3.7
2017-Jan-16 22:00N 45°30' W 073°30'0 0.0 210 / 6 2.5-4.0
2017-Jan-16 21:00N 45°30' W 073°30'0 0.0 210 / 12 2.7-3.8
2017-Jan-16 20:00N 45°30' W 073°30'0 0.0 210 / 14 2.5-3.8
2017-Jan-16 19:00N 45°30' W 073°30'0 0.0 210 / 12 2.1-4.2
2017-Jan-16 18:00N 45°30' W 073°30'0 0.0 210 / 12 1.4-4.7
2017-Jan-16 17:00N 45°30' W 073°30'0 0.0 200 / 13 0.8-5.3
2017-Jan-16 16:00N 45°30' W 073°30'0 0.0 210 / 15 0.1-6.4
2017-Jan-16 15:00N 45°30' W 073°30'0 0.0 190 / 11 -1.1-6.2
2017-Jan-16 14:00N 45°30' W 073°30'0 0.0 180 / 8 -3.4-7.6
2017-Jan-16 13:00N 45°30' W 073°30'0 0.0 190 / 6 -5.1-8.9
2017-Jan-16 12:00N 45°30' W 073°30'0 0.0 180 / 5 -6.2-9.6
2017-Jan-16 11:00N 45°30' W 073°30'0 0.0 170 / 5 -6.4-10.4
2017-Jan-16 10:00N 45°30' W 073°30'0 0.0 180 / 5 -7.3-11.4
2017-Jan-16 09:00N 45°30' W 073°30'0 0.0 170 / 3 -7.9-11.5
2017-Jan-16 08:00N 45°30' W 073°30'0 0.0 180 / 6 -8.2-12.0
2017-Jan-16 07:00N 45°30' W 073°30'0 0.0 190 / 6 -8.3-13.1
2017-Jan-16 06:00N 45°30' W 073°30'0 0.0 180 / 6 -8.2-13.2
2017-Jan-16 05:00N 45°30' W 073°30'0 0.0 170 / 6 -7.7-12.7
2017-Jan-16 04:00N 45°30' W 073°30'0 0.0 190 / 4 -8.2-13.6
2017-Jan-16 03:00N 45°30' W 073°30'0 0.0 200 / 4 -8.5-13.6
2017-Jan-16 02:00N 45°30' W 073°30'0 0.0 200 / 4 -7.8-15.5
2017-Jan-16 01:00N 45°30' W 073°30'0 0.0 240 / 1 -7.8-15.9
2017-Jan-16 00:00N 45°30' W 073°30'0 0.0 -7.9-16.0
2017-Jan-15 23:00N 45°30' W 073°30'0 0.0 240 / 5 -8.3-16.5
2017-Jan-15 22:00N 45°30' W 073°30'0 0.0 220 / 5 -8.1-16.1
2017-Jan-15 21:00N 45°30' W 073°30'0 0.0 210 / 5 -7.6-16.2
2017-Jan-15 20:00N 45°30' W 073°30'0 0.0 220 / 4 -7.1-17.0
2017-Jan-15 19:00N 45°30' W 073°30'0 0.0 100 / 2 -6.2-16.3
2017-Jan-15 18:00N 45°30' W 073°30'0 0.0 350 / 5 -8.1-18.0
2017-Jan-15 17:00N 45°30' W 073°30'0 0.0 340 / 7 -8.7-18.4
2017-Jan-15 16:00N 45°30' W 073°30'0 0.0 340 / 10 -9.0-18.3
2017-Jan-15 15:00N 45°30' W 073°30'0 0.0 350 / 10 -9.3-17.5
2017-Jan-15 14:00N 45°30' W 073°30'0 0.0 350 / 11 -9.1-16.7
2017-Jan-15 13:00N 45°30' W 073°30'0 0.0 340 / 10 -9.5-13.8
2017-Jan-15 12:00N 45°30' W 073°30'0 0.0 300 / 10 -7.9-11.3
2017-Jan-15 11:00N 45°30' W 073°30'0 0.0 290 / 9 -6.8-10.5
2017-Jan-15 10:00N 45°30' W 073°30'0 0.0 250 / 8 -6.7-10.2
2017-Jan-15 09:00N 45°30' W 073°30'0 0.0 240 / 10 -6.8-10.1
2017-Jan-15 08:00N 45°30' W 073°30'0 0.0 240 / 10 -6.0-9.7
2017-Jan-15 07:00N 45°30' W 073°30'0 0.0 240 / 11 -6.2-9.9
2017-Jan-15 06:00N 45°30' W 073°30'0 0.0 230 / 9 -6.7-10.4
2017-Jan-15 05:00N 45°30' W 073°30'0 0.0 230 / 8 -6.8-10.3
2017-Jan-15 04:00N 45°30' W 073°30'0 0.0 200 / 5 -6.9-10.4
2017-Jan-15 03:00N 45°30' W 073°30'0 0.0 190 / 6 -7.1-11.9
2017-Jan-15 02:00N 45°30' W 073°30'0 0.0 180 / 8 -7.1-11.8
2017-Jan-15 01:00N 45°30' W 073°30'0 0.0 180 / 6 -8.1-12.2
2017-Jan-15 00:00N 45°30' W 073°30'0 0.0 180 / 5 -8.7-14.3
2017-Jan-14 23:00N 45°30' W 073°30'0 0.0 180 / 5 -9.2-14.8
2017-Jan-14 22:00N 45°30' W 073°30'0 0.0 190 / 3 -9.6-16.4
2017-Jan-14 21:00N 45°30' W 073°30'0 0.0 160 / 5 -9.5-16.6
2017-Jan-14 20:00N 45°30' W 073°30'0 0.0 190 / 5 -10.6-18.4
2017-Jan-14 19:00N 45°30' W 073°30'0 0.0 200 / 4 -11.3-18.7
2017-Jan-14 18:00N 45°30' W 073°30'0 0.0 180 / 5 -12.0-19.1
2017-Jan-14 17:00N 45°30' W 073°30'0 0.0 180 / 3 -12.7-18.9
2017-Jan-14 16:00N 45°30' W 073°30'0 0.0 190 / 7 -14.1-19.8
2017-Jan-14 15:00N 45°30' W 073°30'0 0.0 190 / 5 -14.7-20.6
2017-Jan-14 14:00N 45°30' W 073°30'0 0.0 180 / 1 -14.9-20.4
2017-Jan-14 13:00N 45°30' W 073°30'0 0.0 100 / 2 -15.8-21.8
2017-Jan-14 12:00N 45°30' W 073°30'0 0.0 090 / 2 -16.0-22.0
2017-Jan-14 11:00N 45°30' W 073°30'0 0.0 100 / 1 -15.7-21.1
2017-Jan-14 10:00N 45°30' W 073°30'0 0.0 350 / 5 -15.5-22.9
2017-Jan-14 09:00N 45°30' W 073°30'0 0.0 340 / 5 -15.4-22.7
2017-Jan-14 08:00N 45°30' W 073°30'0 0.0 340 / 6 -15.1-22.3
2017-Jan-14 07:00N 45°30' W 073°30'0 0.0 320 / 6 -14.6-22.0
2017-Jan-14 06:00N 45°30' W 073°30'0 0.0 320 / 8 -14.2-22.1
2017-Jan-14 05:00N 45°30' W 073°30'0 0.0 300 / 8 -13.6-21.4
2017-Jan-14 04:00N 45°30' W 073°30'0 0.0 290 / 7 -13.1-20.8
2017-Jan-14 03:00N 45°30' W 073°30'0 0.0 320 / 8 -12.2-21.0
2017-Jan-14 02:00N 45°30' W 073°30'0 0.0 300 / 10 -11.6-20.9
2017-Jan-14 01:00N 45°30' W 073°30'0 0.0 320 / 8 -10.9-20.8
2017-Jan-14 00:00N 45°30' W 073°30'0 0.0 320 / 11 -10.1-20.6
2017-Jan-13 23:00N 45°30' W 073°30'0 0.0 290 / 9 -9.4-21.3
2017-Jan-13 22:00N 45°30' W 073°30'0 0.0 290 / 12 -8.9-21.9
2017-Jan-13 21:00N 45°30' W 073°30'0 0.0 300 / 14 -8.0-21.3
2017-Jan-13 20:00N 45°30' W 073°30'0 0.0 260 / 10 -7.4-20.4
2017-Jan-13 19:00N 45°30' W 073°30'0 0.0 300 / 13 -6.4-17.2
2017-Jan-13 18:00N 45°30' W 073°30'0 0.0 300 / 16 -5.9-17.3
2017-Jan-13 17:00N 45°30' W 073°30'0 0.0 300 / 13 -5.5-13.9
2017-Jan-13 16:00N 45°30' W 073°30'0 0.0 300 / 12 -4.8-14.6
2017-Jan-13 15:00N 45°30' W 073°30'0 0.0 300 / 12 -4.4-13.2
2017-Jan-13 14:00N 45°30' W 073°30'0 0.0 280 / 9 -4.2-13.1
2017-Jan-13 13:00N 45°30' W 073°30'0 0.0 280 / 8 -3.6-10.1
2017-Jan-13 12:00N 45°30' W 073°30'0 0.0 250 / 9 -3.1-7.4
2017-Jan-13 11:00N 45°30' W 073°30'0 0.0 280 / 11 -3.1-5.8
2017-Jan-13 10:00N 45°30' W 073°30'0 0.0 240 / 10 -3.0-8.9
2017-Jan-13 09:00N 45°30' W 073°30'0 0.0 250 / 8 -2.4-9.1
2017-Jan-13 08:00N 45°30' W 073°30'0 0.0 280 / 8 -1.3-8.8
2017-Jan-13 07:00N 45°30' W 073°30'0 0.0 240 / 9 -0.2-5.1
2017-Jan-13 06:00N 45°30' W 073°30'0 0.0 240 / 8 -0.2-3.0
2017-Jan-13 05:00N 45°30' W 073°30'0 0.0 230 / 9 0.9 0.2
2017-Jan-13 03:00N 45°30' W 073°30'0 0.0 230 / 9 2.0 1.9
2017-Jan-13 02:00N 45°30' W 073°30'0 0.0 230 / 7 2.8 2.8
2017-Jan-13 01:00N 45°30' W 073°30'0 0.0 230 / 7 3.5 3.4
2017-Jan-13 00:00N 45°30' W 073°30'0 0.0 230 / 5 3.9 3.9
2017-Jan-12 23:00N 45°30' W 073°30'0 0.0 200 / 6 3.9 4.0
2017-Jan-12 22:00N 45°30' W 073°30'0 0.0 190 / 6 4.5 4.6
2017-Jan-12 21:00N 45°30' W 073°30'0 0.0 200 / 5 5.2 5.3
2017-Jan-12 20:00N 45°30' W 073°30'0 0.0 200 / 4 6.2 6.3
2017-Jan-12 19:00N 45°30' W 073°30'0 0.0 200 / 4 5.9 6.0
2017-Jan-12 18:00N 45°30' W 073°30'0 0.0 170 / 2 6.0 6.1
2017-Jan-12 17:00N 45°30' W 073°30'0 0.0 140 / 4 6.0 6.1
2017-Jan-12 16:00N 45°30' W 073°30'0 0.0 190 / 5 5.3 5.3
2017-Jan-12 15:00N 45°30' W 073°30'0 0.0 190 / 4 5.3 5.3
2017-Jan-12 14:00N 45°30' W 073°30'0 0.0 170 / 6 5.3 5.3
2017-Jan-12 13:00N 45°30' W 073°30'0 0.0 160 / 9 5.4 5.4
2017-Jan-12 12:00N 45°30' W 073°30'0 0.0 160 / 8 5.7 5.6
2017-Jan-12 11:00N 45°30' W 073°30'0 0.0 160 / 7 5.6 5.5
2017-Jan-12 10:00N 45°30' W 073°30'0 0.0 150 / 7 5.6 3.8
2017-Jan-12 09:00N 45°30' W 073°30'0 0.0 160 / 8 6.4 1.6
2017-Jan-12 08:00N 45°30' W 073°30'0 0.0 150 / 7 5.9 0.6
2017-Jan-12 07:00N 45°30' W 073°30'0 0.0 170 / 9 5.9 0.3
2017-Jan-12 06:00N 45°30' W 073°30'0 0.0 160 / 8 6.0-0.1
2017-Jan-12 05:00N 45°30' W 073°30'0 0.0 160 / 5 6.4-0.8
2017-Jan-12 04:00N 45°30' W 073°30'0 0.0 160 / 7 6.2-1.7
2017-Jan-12 03:00N 45°30' W 073°30'0 0.0 150 / 7 6.0-1.1
2017-Jan-12 02:00N 45°30' W 073°30'0 0.0 180 / 8 6.2-1.6
2017-Jan-12 01:00N 45°30' W 073°30'0 0.0 140 / 9 5.6-0.6
2017-Jan-12 00:00N 45°30' W 073°30'0 0.0 120 / 3 3.8-1.0
2017-Jan-11 23:00N 45°30' W 073°30'0 0.0 200 / 4 4.5-2.3
2017-Jan-11 22:00N 45°30' W 073°30'0 0.0 210 / 5 4.9-2.1
2017-Jan-11 21:00N 45°30' W 073°30'0 0.0 200 / 7 5.4-2.0
2017-Jan-11 20:00N 45°30' W 073°30'0 0.0 210 / 7 5.7-1.9
2017-Jan-11 19:00N 45°30' W 073°30'0 0.0 210 / 13 5.1-1.8
2017-Jan-11 18:00N 45°30' W 073°30'0 0.0 210 / 15 4.9-1.8
2017-Jan-11 17:00N 45°30' W 073°30'0 0.0 200 / 16 4.2-1.5
2017-Jan-11 16:00N 45°30' W 073°30'0 0.0 210 / 17 4.5-1.8
2017-Jan-11 15:00N 45°30' W 073°30'0 0.0 210 / 16 4.8-1.9
2017-Jan-11 14:00N 45°30' W 073°30'0 0.0 210 / 13 4.9-1.3
2017-Jan-11 13:00N 45°30' W 073°30'0 0.0 200 / 20 4.7-1.0
2017-Jan-11 12:00N 45°30' W 073°30'0 0.0 200 / 19 4.2 1.8
2017-Jan-11 11:00N 45°30' W 073°30'0 0.0 170 / 15 3.5 1.6
2017-Jan-11 10:00N 45°30' W 073°30'0 0.0 160 / 14 3.0 2.0
2017-Jan-11 09:00N 45°30' W 073°30'0 0.0 140 / 17 2.6 2.2
2017-Jan-11 08:00N 45°30' W 073°30'0 0.0 160 / 18 3.2 1.3
2017-Jan-11 07:00N 45°30' W 073°30'0 0.0 150 / 15 3.3-0.1
2017-Jan-11 06:00N 45°30' W 073°30'0 0.0 150 / 15 2.6-1.0
2017-Jan-11 05:00N 45°30' W 073°30'   160 / 16 2.6-1.8

Dump ship's entire track history